SCC: VIR: ST qualifying times

Pos Num Class Team Time Gap To 1st Speed --- --- ----- ------------------------------ ---------- ------- ------- ------- 1. 22 ST HART 2:10.313 90.336 2. ...

Pos Num Class Team                                 Time     Gap  To 1st   Speed
--- --- ----- ------------------------------ ---------- ------- ------- -------
 1.  22 ST    HART                             2:10.313                  90.336
 2.  76 ST    Kensai Racing                    2:11.643   1.330   1.330  89.424
 3. 111 ST    ICY/ Phoenix Racing              2:11.661   0.018   1.348  89.411
 4.  01 ST    Georgian Bay Motorsports         2:11.693   0.032   1.380  89.390
 5.  95 ST    Turner Motorsport                2:11.723   0.030   1.410  89.369
 6. 127 ST    Fountain Motorsports             2:11.867   0.144   1.554  89.272
 7. 141 ST    ICY/ Phoenix Racing              2:12.075   0.208   1.762  89.131
 8.  00 ST    Georgian Bay Motorsports         2:12.220   0.145   1.907  89.033
 9.  68 ST    SpeedSource                      2:12.230   0.010   1.917  89.027
10.  74 ST    Kensai Racing                    2:12.286   0.056   1.973  88.989
11.  53 ST    Predator Auto Sport              2:12.327   0.041   2.014  88.961
12. 126 ST    Fountain Motorsports             2:12.752   0.425   2.439  88.677
13.  58 ST    BSI Racing                       2:12.969   0.217   2.656  88.532
14.  86 ST    Classic BMW - Plano              2:13.168   0.199   2.855  88.400
15.  27 ST    Bill Fenton Motorsports          2:13.239   0.071   2.926  88.353
16.  69 ST    SpeedSource                      2:13.596   0.357   3.283  88.116
17. 174 ST    LRT Racing                       2:13.793   0.197   3.480  87.987
18.  32 ST    i-MOTO Racing                    2:13.919   0.126   3.606  87.904
19.  56 ST    BSI Racing                       2:13.975   0.056   3.662  87.867
20.  75 ST    Kensai Racing                    2:14.441   0.466   4.128  87.563
21.  24 ST    V-Pack Motorsport                2:14.913   0.472   4.600  87.256
22.  29 ST    Bill Fenton Motorsports          2:15.251   0.338   4.938  87.038
23. 133 ST    Kinetic Motorsports              2:15.470   0.219   5.157  86.897
24.  64 ST    T Giovanis Motorsport            2:16.020   0.550   5.707  86.546
25. 138 ST    GS Motorsports                   2:16.077   0.057   5.764  86.510
26.  62 ST    Roar Racing                      2:16.444   0.367   6.131  86.277
27. 198 ST    RSR Motorsports                  2:17.109   0.665   6.796  85.859
28. 197 ST    RSR Motorsports                  2:17.440   0.331   7.127  85.652
29.  70 ST    SpeedSource                      2:17.838   0.398   7.525  85.405
30.  63 ST    Roar Racing                      2:17.859   0.021   7.546  85.392
31. 125 ST    Fountain Motorsports             2:21.573   3.714  11.260  83.151
32.  02 ST    Blackforest Motorsports          2:22.381   0.808  12.068  82.680
33.  48 ST    Team Cobalt California           2:32.725  10.344  22.412  77.080
34.  13 ST    SDS Performance Racing           2:33.678   0.953  23.365  76.602
35.  31 ST    i-MOTO Racing                    3:02.803  29.125  52.490  64.397
36.  85 ST    Classic BMW - Plano              6:02.984 3:00.18 3:52.67  32.431

Write a comment
Show comments
About this article
Series GRANDAM